Time;durP1;ratioP1;P1;durP2;ratioP2;P2;SDS_P1;SDS_P2;PMS_P1;PMS_P2;Temp;Humidity;BMP_temperature;BMP_pressure;BME280_temperature;BME280_humidity;BME280_pressure;Samples;Min_cycle;Max_cycle;Signal;HPM_P1;HPM_P2
2023/02/15 00:02:04;;;;;;;28.73;19.23;;;4.70;99.90;;;;;;4871474;29;20104;-95
2023/02/15 00:04:48;;;;;;;28.98;19.30;;;4.60;99.90;;;;;;4864855;29;20095;-96
2023/02/15 00:07:19;;;;;;;;;;;4.60;99.90;;;;;;4866390;29;20079;-96
2023/02/15 00:09:46;;;;;;;26.83;18.40;;;4.50;99.90;;;;;;4881013;29;19923;-96
2023/02/15 00:12:12;;;;;;;26.60;18.27;;;4.50;99.90;;;;;;4881777;29;20080;-95
2023/02/15 00:14:46;;;;;;;27.08;19.65;;;4.50;99.90;;;;;;4865331;29;20049;-96
2023/02/15 00:17:26;;;;;;;28.80;19.38;;;4.50;99.90;;;;;;4884111;29;20088;-95
2023/02/15 00:19:55;;;;;;;26.35;19.45;;;4.40;99.90;;;;;;4852780;29;20037;-95
2023/02/15 00:22:32;;;;;;;25.65;18.13;;;4.40;99.90;;;;;;4887492;29;20041;-95
2023/02/15 00:25:06;;;;;;;25.48;18.38;;;4.50;99.90;;;;;;4868012;29;20055;-95
2023/02/15 00:27:43;;;;;;;25.88;19.42;;;4.40;99.90;;;;;;4901705;29;20087;-96
2023/02/15 00:30:27;;;;;;;23.70;17.20;;;4.40;99.90;;;;;;4870918;29;20473;-95
2023/02/15 00:32:58;;;;;;;25.20;17.90;;;4.40;99.90;;;;;;4884008;29;20048;-95
2023/02/15 00:35:32;;;;;;;25.02;18.73;;;4.30;99.90;;;;;;4883945;29;20044;-95
2023/02/15 00:38:04;;;;;;;24.55;17.25;;;4.30;99.90;;;;;;4871660;29;20486;-95
2023/02/15 00:40:33;;;;;;;22.17;16.70;;;4.30;99.90;;;;;;4875359;29;20481;-95
2023/02/15 00:43:08;;;;;;;24.00;17.27;;;4.20;99.90;;;;;;4876575;29;20068;-95
2023/02/15 00:45:49;;;;;;;23.30;18.13;;;4.20;99.90;;;;;;4886261;29;20048;-95
2023/02/15 00:48:18;;;;;;;26.15;17.45;;;4.20;99.90;;;;;;4887668;29;20049;-95
2023/02/15 00:51:28;;;;;;;27.85;18.23;;;4.10;99.90;;;;;;4872112;29;20177;-95
2023/02/15 00:54:00;;;;;;;24.33;17.80;;;4.10;99.90;;;;;;4800440;29;20054;-95
2023/02/15 00:56:29;;;;;;;26.85;18.50;;;4.10;99.90;;;;;;4798888;29;20205;-95
2023/02/15 00:59:08;;;;;;;24.27;18.48;;;4.10;99.90;;;;;;4870046;29;20169;-96
2023/02/15 01:01:34;;;;;;;25.80;18.17;;;4.00;99.90;;;;;;4891157;29;20045;-95
2023/02/15 01:04:06;;;;;;;23.90;17.92;;;4.00;99.90;;;;;;4877048;29;20053;-95
2023/02/15 01:06:43;;;;;;;25.50;19.02;;;4.00;99.90;;;;;;4893715;29;20049;-95
2023/02/15 01:09:19;;;;;;;24.02;17.13;;;4.00;99.90;;;;;;4892330;29;20053;-95
2023/02/15 01:11:50;;;;;;;24.95;18.30;;;4.00;99.90;;;;;;4874446;29;20045;-95
2023/02/15 01:14:28;;;;;;;25.60;19.48;;;3.90;99.90;;;;;;4873269;29;20516;-96
2023/02/15 01:17:03;;;;;;;24.13;19.17;;;3.90;99.90;;;;;;4873923;29;20055;-95
2023/02/15 01:19:41;;;;;;;25.58;18.67;;;3.90;99.90;;;;;;4891025;29;20045;-95
2023/02/15 01:22:09;;;;;;;24.23;19.02;;;3.90;99.90;;;;;;4890030;29;20112;-96
2023/02/15 01:24:45;;;;;;;24.58;18.73;;;3.80;99.90;;;;;;4873611;29;20109;-95
2023/02/15 01:27:21;;;;;;;24.10;19.08;;;3.90;99.90;;;;;;4872810;29;20412;-95
2023/02/15 01:30:04;;;;;;;26.83;19.63;;;3.80;99.90;;;;;;4888533;29;20101;-95
2023/02/15 01:32:33;;;;;;;24.65;19.75;;;3.80;99.90;;;;;;4870056;29;20045;-95
2023/02/15 01:35:09;;;;;;;24.88;19.05;;;3.80;99.90;;;;;;4871102;29;20051;-94
2023/02/15 01:37:40;;;;;;;27.45;20.70;;;3.80;99.90;;;;;;4871233;29;20209;-95
2023/02/15 01:40:31;;;;;;;28.65;21.50;;;3.80;99.90;;;;;;4905751;29;20051;-95
2023/02/15 01:43:10;;;;;;;28.95;19.77;;;3.70;99.90;;;;;;4907262;29;20076;-95
2023/02/15 01:45:39;;;;;;;26.83;20.30;;;3.70;99.90;;;;;;4906755;29;20045;-95
2023/02/15 01:48:48;;;;;;;27.63;20.17;;;3.70;99.90;;;;;;4881906;23;20154;-94
2023/02/15 01:51:18;;;;;;;28.80;20.30;;;3.70;99.90;;;;;;4884286;29;20057;-95
2023/02/15 01:53:50;;;;;;;28.85;21.23;;;3.70;99.90;;;;;;4868003;29;20041;-95
2023/02/15 01:56:27;;;;;;;26.20;20.63;;;3.70;99.90;;;;;;4869811;29;20044;-96
2023/02/15 01:58:58;;;;;;;27.85;20.40;;;3.60;99.90;;;;;;4887889;29;20045;-95
2023/02/15 02:01:33;;;;;;;30.35;21.63;;;3.60;99.90;;;;;;4887648;29;20037;-94
2023/02/15 02:04:14;;;;;;;28.52;21.00;;;3.60;99.90;;;;;;4870451;29;20048;-95
2023/02/15 02:06:41;;;;;;;29.05;21.25;;;3.50;99.90;;;;;;4885809;29;20064;-95
2023/02/15 02:09:18;;;;;;;29.33;21.63;;;3.50;99.90;;;;;;4893337;23;20059;-95
2023/02/15 02:11:55;;;;;;;28.55;21.92;;;3.50;99.90;;;;;;4865802;29;20502;-95
2023/02/15 02:14:28;;;;;;;32.05;22.98;;;3.40;99.90;;;;;;4867570;29;20073;-95
2023/02/15 02:17:06;;;;;;;28.73;21.70;;;3.40;99.90;;;;;;4866541;29;20045;-95
2023/02/15 02:19:53;;;;;;;28.17;21.35;;;3.40;99.90;;;;;;4869431;29;20112;-95
2023/02/15 02:22:40;;;;;;;27.30;21.48;;;3.40;99.90;;;;;;4868727;29;20057;-95
2023/02/15 02:25:15;;;;;;;27.25;20.63;;;3.30;99.90;;;;;;4869177;29;20052;-94
2023/02/15 02:28:15;;;;;;;27.67;21.40;;;3.30;99.90;;;;;;4898160;29;20052;-95
2023/02/15 02:31:19;;;;;;;28.20;21.63;;;3.30;99.90;;;;;;4885425;29;20057;-95
2023/02/15 02:34:25;;;;;;;29.27;21.33;;;3.20;99.90;;;;;;4876708;29;20048;-96
2023/02/15 02:37:23;;;;;;;27.30;21.20;;;3.20;99.90;;;;;;4884976;29;20128;-95
2023/02/15 02:40:31;;;;;;;26.98;20.58;;;3.20;99.90;;;;;;4866816;29;20057;-95
2023/02/15 02:43:24;;;;;;;28.65;21.90;;;3.20;99.90;;;;;;4867297;29;20152;-95
2023/02/15 02:46:05;;;;;;;26.98;20.38;;;3.20;99.90;;;;;;4883562;29;20053;-95
2023/02/15 02:48:34;;;;;;;26.83;20.67;;;3.10;99.90;;;;;;4883281;29;20470;-95
2023/02/15 02:51:02;;;;;;;28.20;21.25;;;3.10;99.90;;;;;;4866676;29;20131;-95
2023/02/15 02:53:34;;;;;;;24.73;20.05;;;3.10;99.90;;;;;;4883043;29;20065;-94
2023/02/15 02:56:15;;;;;;;25.63;20.38;;;3.10;99.90;;;;;;4866285;29;20048;-95
2023/02/15 02:59:35;;;;;;;26.13;19.80;;;3.00;99.90;;;;;;4866335;29;20152;-95
2023/02/15 03:02:39;;;;;;;26.33;20.85;;;3.00;99.90;;;;;;4866216;29;20128;-95
2023/02/15 03:05:10;;;;;;;27.40;20.35;;;3.00;99.90;;;;;;4866426;29;20413;-95
2023/02/15 03:07:42;;;;;;;25.40;19.60;;;2.90;99.90;;;;;;4866040;29;20056;-95
2023/02/15 03:10:11;;;;;;;25.43;19.53;;;3.00;99.90;;;;;;4882089;29;20478;-95
2023/02/15 03:12:50;;;;;;;23.80;19.05;;;2.90;99.90;;;;;;4882910;29;20048;-95
2023/02/15 03:18:30;;;;;;;24.55;18.52;;;2.90;99.90;;;;;;4865683;29;20068;-94
2023/02/15 03:21:02;;;;;;;24.95;18.52;;;2.80;99.90;;;;;;4865204;29;20049;-95
2023/02/15 03:23:30;;;;;;;28.33;21.87;;;2.80;99.90;;;;;;4877791;23;20061;-95
2023/02/15 03:26:00;;;;;;;28.23;20.13;;;2.80;99.90;;;;;;4881722;29;20298;-94
2023/02/15 03:28:34;;;;;;;25.73;19.35;;;2.80;99.90;;;;;;4864793;29;20112;-94
2023/02/15 03:31:06;;;;;;;25.92;19.00;;;2.80;99.90;;;;;;4865048;29;20056;-95
2023/02/15 03:33:32;;;;;;;26.92;19.52;;;2.70;99.90;;;;;;4864777;29;20081;-94
2023/02/15 03:36:18;;;;;;;27.30;20.38;;;2.70;99.90;;;;;;4864239;29;20048;-94
2023/02/15 03:39:12;;;;;;;23.70;18.55;;;2.70;99.90;;;;;;4889753;29;20048;-94
2023/02/15 03:42:01;;;;;;;27.90;19.10;;;2.70;99.90;;;;;;4866167;29;20056;-95
2023/02/15 03:44:30;;;;;;;26.42;19.73;;;2.60;99.90;;;;;;4863350;29;20132;-94
2023/02/15 03:47:08;;;;;;;24.77;19.80;;;2.60;99.90;;;;;;4861717;29;20498;-93
2023/02/15 03:49:42;;;;;;;23.77;19.55;;;2.60;99.90;;;;;;4871787;29;20144;-94
2023/02/15 03:52:10;;;;;;;26.30;20.10;;;2.60;99.90;;;;;;4864889;29;20045;-94
2023/02/15 03:54:42;;;;;;;22.98;18.92;;;2.60;99.90;;;;;;4886074;29;20097;-94
2023/02/15 04:02:57;;;;;;;23.50;17.40;;;2.50;99.90;;;;;;4864381;29;20556;-94
2023/02/15 04:05:23;;;;;;;24.13;18.80;;;2.50;99.90;;;;;;4880820;29;20481;-95
2023/02/15 04:07:49;;;;;;;21.45;17.98;;;2.50;99.90;;;;;;4864501;29;20048;-95
2023/02/15 04:12:58;;;;;;;22.13;18.70;;;2.50;99.90;;;;;;4864740;29;20060;-95
2023/02/15 04:18:08;;;;;;;25.23;19.30;;;2.50;99.90;;;;;;4894386;29;20044;-95
2023/02/15 04:26:06;;;;;;;22.27;18.92;;;2.40;99.90;;;;;;4863879;29;20505;-94
2023/02/15 04:28:31;;;;;;;21.25;17.73;;;2.50;99.90;;;;;;4864186;29;20607;-95
2023/02/15 04:30:57;;;;;;;23.40;18.73;;;2.40;99.90;;;;;;4881059;23;20481;-95
2023/02/15 04:33:23;;;;;;;21.65;18.25;;;2.40;99.90;;;;;;4862287;29;20050;-94
2023/02/15 04:35:56;;;;;;;26.85;19.88;;;2.40;99.90;;;;;;4864782;29;20121;-93
2023/02/15 04:38:24;;;;;;;23.55;18.90;;;2.40;99.90;;;;;;4866217;29;20057;-94
2023/02/15 04:40:56;;;;;;;25.38;20.63;;;2.40;99.90;;;;;;4866381;29;20081;-93
2023/02/15 04:43:32;;;;;;;23.02;18.58;;;2.40;99.90;;;;;;4849903;29;20061;-94
2023/02/15 04:46:07;;;;;;;24.80;19.98;;;2.40;99.90;;;;;;4849421;29;20463;-94
2023/02/15 04:48:38;;;;;;;24.70;19.15;;;2.30;99.90;;;;;;4827597;29;20049;-93
2023/02/15 04:51:07;;;;;;;25.02;19.77;;;2.40;99.90;;;;;;4838241;29;20056;-94
2023/02/15 04:53:39;;;;;;;24.52;19.90;;;2.30;99.90;;;;;;4851793;29;20064;-94
2023/02/15 04:56:10;;;;;;;24.65;19.92;;;2.30;99.90;;;;;;4861522;29;20048;-94
2023/02/15 04:58:42;;;;;;;25.95;19.50;;;2.30;99.90;;;;;;4860671;29;20041;-94
2023/02/15 05:01:11;;;;;;;26.63;20.42;;;2.30;99.90;;;;;;4856130;29;20041;-94
2023/02/15 05:03:51;;;;;;;25.50;19.33;;;2.30;99.90;;;;;;4861056;29;20073;-94
2023/02/15 05:06:29;;;;;;;26.15;19.63;;;2.30;99.90;;;;;;4849095;29;20079;-92
2023/02/15 05:09:00;;;;;;;26.83;20.50;;;2.30;99.90;;;;;;4851275;29;20052;-93
2023/02/15 05:11:32;;;;;;;25.45;19.88;;;2.20;99.90;;;;;;4865639;29;20044;-93
2023/02/15 05:14:06;;;;;;;27.45;22.38;;;2.20;99.90;;;;;;4865406;29;20046;-90
2023/02/15 05:16:32;;;;;;;24.38;19.85;;;2.30;99.90;;;;;;4847767;29;20049;-88
2023/02/15 05:19:09;;;;;;;26.10;20.83;;;2.20;99.90;;;;;;4864754;29;20056;-91
2023/02/15 05:21:35;;;;;;;29.00;22.58;;;2.20;99.90;;;;;;4847943;29;20042;-92
2023/02/15 05:28:18;;;;;;;26.45;20.50;;;2.20;99.90;;;;;;4847322;29;20057;-88
2023/02/15 05:29:30;;;;;;;32.50;22.65;;;2.20;99.90;;;;;;4861510;29;20045;-87
2023/02/15 05:31:55;;;;;;;34.60;24.92;;;2.10;99.90;;;;;;4847093;29;20053;-89
2023/02/15 05:34:21;;;;;;;32.03;24.48;;;2.10;99.90;;;;;;4847049;29;20056;-87
2023/02/15 05:36:47;;;;;;;33.83;25.63;;;2.10;99.90;;;;;;4847162;29;20143;-88
2023/02/15 05:39:12;;;;;;;37.03;26.20;;;2.10;99.90;;;;;;4850461;29;20378;-88
2023/02/15 05:41:40;;;;;;;33.70;25.60;;;2.10;99.90;;;;;;4847319;29;20053;-86
2023/02/15 05:44:06;;;;;;;33.25;25.92;;;2.10;99.90;;;;;;4846487;29;20050;-88
2023/02/15 05:46:31;;;;;;;32.05;25.17;;;2.10;99.90;;;;;;4870984;23;20199;-90
2023/02/15 05:49:01;;;;;;;35.05;27.50;;;2.10;99.90;;;;;;4873249;23;20088;-92
2023/02/15 05:51:32;;;;;;;34.10;25.88;;;2.10;99.90;;;;;;4882026;29;20045;-91
2023/02/15 05:54:03;;;;;;;33.88;25.80;;;2.10;99.90;;;;;;4883244;29;20053;-90
2023/02/15 05:56:32;;;;;;;34.25;24.85;;;2.00;99.90;;;;;;4866683;29;20481;-91
2023/02/15 05:59:00;;;;;;;30.38;23.88;;;2.00;99.90;;;;;;4883106;29;20055;-92
2023/02/15 06:01:26;;;;;;;30.17;22.90;;;2.00;99.90;;;;;;4866593;29;20037;-91
2023/02/15 06:03:52;;;;;;;33.15;25.13;;;2.00;99.90;;;;;;4866817;29;20071;-92
2023/02/15 06:06:18;;;;;;;32.20;24.42;;;1.90;99.90;;;;;;4867387;29;20044;-93
2023/02/15 06:08:49;;;;;;;29.85;22.95;;;1.90;99.90;;;;;;4884066;29;20063;-91
2023/02/15 06:11:17;;;;;;;30.20;22.08;;;2.00;99.90;;;;;;4883032;29;20041;-93
2023/02/15 06:13:45;;;;;;;28.98;22.17;;;1.90;99.90;;;;;;4867420;29;20079;-92
2023/02/15 06:16:23;;;;;;;27.73;22.38;;;1.90;99.90;;;;;;4878926;29;20065;-91
2023/02/15 06:18:54;;;;;;;31.02;22.55;;;1.90;99.90;;;;;;4866185;29;20125;-92
2023/02/15 06:21:25;;;;;;;30.30;21.90;;;1.90;99.90;;;;;;4882928;29;20056;-91
2023/02/15 06:23:57;;;;;;;28.63;22.73;;;1.90;99.90;;;;;;4883603;29;20102;-92
2023/02/15 06:26:26;;;;;;;29.42;21.63;;;1.80;99.90;;;;;;4866377;29;20076;-93
2023/02/15 06:29:00;;;;;;;31.50;22.73;;;1.90;99.90;;;;;;4867510;29;20052;-92
2023/02/15 06:31:32;;;;;;;29.95;22.75;;;1.80;99.90;;;;;;4882619;29;20045;-92
2023/02/15 06:34:01;;;;;;;32.15;22.95;;;1.90;99.90;;;;;;4882504;29;20490;-93
2023/02/15 06:36:33;;;;;;;30.45;22.45;;;1.80;99.90;;;;;;4866049;29;20104;-93
2023/02/15 06:39:07;;;;;;;30.05;21.58;;;1.80;99.90;;;;;;4865969;29;20053;-90
2023/02/15 06:41:45;;;;;;;28.98;22.25;;;1.80;99.90;;;;;;4881746;29;20045;-90
2023/02/15 06:44:14;;;;;;;33.97;22.65;;;1.80;99.90;;;;;;4883055;29;20104;-90
2023/02/15 06:46:51;;;;;;;31.35;22.52;;;1.70;99.90;;;;;;4866229;29;20041;-92
2023/02/15 06:49:22;;;;;;;28.70;21.73;;;1.80;99.90;;;;;;4883338;29;20128;-90
2023/02/15 06:52:00;;;;;;;31.38;23.70;;;1.80;99.90;;;;;;4866690;29;20049;-90
2023/02/15 06:54:32;;;;;;;32.22;23.70;;;1.80;99.90;;;;;;4899520;29;20131;-93
2023/02/15 06:57:01;;;;;;;29.70;22.58;;;1.70;99.90;;;;;;4883407;29;20485;-92
2023/02/15 06:59:32;;;;;;;30.80;22.55;;;1.80;99.90;;;;;;4883683;29;20087;-91
2023/02/15 07:02:11;;;;;;;29.75;21.42;;;1.80;99.90;;;;;;4882227;29;20052;-92
2023/02/15 07:04:39;;;;;;;30.98;21.63;;;1.70;99.90;;;;;;4883815;29;20564;-92
2023/02/15 07:07:14;;;;;;;29.77;21.40;;;1.70;99.90;;;;;;4883654;29;20075;-93
2023/02/15 07:09:46;;;;;;;30.38;21.65;;;1.70;99.90;;;;;;4884206;29;20052;-92
2023/02/15 07:14:59;;;;;;;28.63;21.15;;;1.70;99.90;;;;;;4902477;23;20072;-92
2023/02/15 07:17:30;;;;;;;30.73;21.70;;;1.70;99.90;;;;;;4883754;29;20449;-92
2023/02/15 07:20:08;;;;;;;32.78;23.58;;;1.70;99.90;;;;;;4883699;29;20504;-91
2023/02/15 07:22:35;;;;;;;29.67;21.23;;;1.70;99.90;;;;;;4883714;29;20067;-91
2023/02/15 07:25:02;;;;;;;31.02;22.50;;;1.70;99.90;;;;;;4884143;29;20465;-92
2023/02/15 07:27:35;;;;;;;30.75;22.17;;;1.70;99.90;;;;;;4899636;29;20157;-92
2023/02/15 07:30:01;;;;;;;30.50;21.00;;;1.60;99.90;;;;;;4890365;29;20398;-93
2023/02/15 07:32:29;;;;;;;32.95;22.67;;;1.70;99.90;;;;;;4864874;29;20088;-92
2023/02/15 07:34:55;;;;;;;31.48;21.75;;;1.70;99.90;;;;;;4881434;29;20045;-92
2023/02/15 07:37:21;;;;;;;33.03;22.58;;;1.60;99.90;;;;;;4881357;29;20393;-91
2023/02/15 07:39:47;;;;;;;30.23;19.70;;;1.60;99.90;;;;;;4864676;29;20521;-91
2023/02/15 07:42:13;;;;;;;29.60;21.08;;;1.60;99.90;;;;;;4880682;29;20049;-92
2023/02/15 07:44:39;;;;;;;32.28;21.08;;;1.60;99.90;;;;;;4881898;29;20520;-92
2023/02/15 07:47:04;;;;;;;27.75;19.50;;;1.60;99.90;;;;;;4864542;29;20116;-91
2023/02/15 07:49:30;;;;;;;26.25;20.80;;;1.60;99.90;;;;;;4875559;29;20052;-91
2023/02/15 07:51:55;;;;;;;28.77;20.92;;;1.60;99.90;;;;;;4895221;29;20049;-91
2023/02/15 07:54:21;;;;;;;28.77;20.75;;;1.60;99.90;;;;;;4880866;29;20088;-92
2023/02/15 07:56:47;;;;;;;30.60;21.42;;;1.60;99.90;;;;;;4881643;29;20049;-92
2023/02/15 07:59:13;;;;;;;31.15;21.48;;;1.60;99.90;;;;;;4880961;29;20489;-91
2023/02/15 08:01:39;;;;;;;27.88;20.40;;;1.60;99.90;;;;;;4864178;29;20044;-91
2023/02/15 08:04:06;;;;;;;28.05;20.27;;;1.60;99.90;;;;;;4880856;29;20498;-92
2023/02/15 08:06:34;;;;;;;28.75;20.63;;;1.60;99.90;;;;;;4884184;29;20067;-94
2023/02/15 08:09:03;;;;;;;28.88;21.08;;;1.60;99.90;;;;;;4883172;29;20048;-93
2023/02/15 08:11:39;;;;;;;31.00;21.10;;;1.60;99.90;;;;;;4882802;29;20071;-94
2023/02/15 08:14:13;;;;;;;31.85;21.95;;;1.60;99.90;;;;;;4883102;29;20056;-93
2023/02/15 08:16:40;;;;;;;31.25;20.88;;;1.70;99.90;;;;;;4883650;29;20135;-93
2023/02/15 08:19:07;;;;;;;31.45;22.23;;;1.70;99.90;;;;;;4883466;29;20089;-93
2023/02/15 08:21:35;;;;;;;30.05;22.75;;;1.70;99.90;;;;;;4879026;29;20041;-92
2023/02/15 08:24:02;;;;;;;31.98;22.25;;;1.70;99.90;;;;;;4900447;29;20056;-93
2023/02/15 08:26:29;;;;;;;31.15;21.55;;;1.70;99.90;;;;;;4899159;29;20044;-94
2023/02/15 08:28:55;;;;;;;34.88;23.25;;;1.70;99.90;;;;;;4895354;23;20053;-93
2023/02/15 08:31:21;;;;;;;31.30;21.75;;;1.80;99.90;;;;;;4899848;29;20060;-93
2023/02/15 08:33:48;;;;;;;31.45;22.10;;;1.80;99.90;;;;;;4901068;29;20040;-94
2023/02/15 08:36:17;;;;;;;33.13;22.52;;;1.80;99.90;;;;;;4898683;29;20045;-93
2023/02/15 08:38:46;;;;;;;36.42;22.92;;;1.80;99.90;;;;;;4899812;29;20109;-93
2023/02/15 08:41:11;;;;;;;32.35;23.50;;;1.90;99.90;;;;;;4897906;29;20168;-92
2023/02/15 08:43:38;;;;;;;32.00;22.90;;;1.90;99.90;;;;;;4899133;29;20099;-92
2023/02/15 08:46:04;;;;;;;30.88;23.00;;;1.90;99.90;;;;;;4898949;29;20048;-92
2023/02/15 08:48:30;;;;;;;31.83;22.60;;;2.00;99.90;;;;;;4898688;29;20040;-93
2023/02/15 08:50:55;;;;;;;36.17;25.42;;;2.00;99.90;;;;;;4894424;29;20051;-92
2023/02/15 08:53:21;;;;;;;41.75;27.10;;;2.10;99.90;;;;;;4899327;29;20493;-93
2023/02/15 08:55:54;;;;;;;40.63;26.20;;;2.10;99.90;;;;;;4897789;29;20051;-92
2023/02/15 08:58:20;;;;;;;39.22;24.75;;;2.20;99.90;;;;;;4882883;29;20128;-91
2023/02/15 09:00:45;;;;;;;35.92;24.73;;;2.30;99.90;;;;;;4879266;29;20525;-92
2023/02/15 09:03:11;;;;;;;38.53;25.15;;;2.30;99.90;;;;;;4879628;29;20136;-92
2023/02/15 09:05:37;;;;;;;36.70;25.27;;;2.40;99.90;;;;;;4887282;29;20036;-91
2023/02/15 09:08:02;;;;;;;36.08;24.30;;;2.50;99.90;;;;;;4896534;29;20497;-91
2023/02/15 09:10:28;;;;;;;42.80;27.77;;;2.50;99.90;;;;;;4880559;29;20056;-92
2023/02/15 09:12:53;;;;;;;42.80;27.88;;;2.50;99.90;;;;;;4878864;29;20049;-89
2023/02/15 09:15:19;;;;;;;42.08;27.80;;;2.60;99.90;;;;;;4878007;29;20494;-91
2023/02/15 09:17:44;;;;;;;39.20;25.52;;;2.70;99.90;;;;;;4879430;29;20072;-91
2023/02/15 09:20:10;;;;;;;44.60;28.55;;;2.70;99.90;;;;;;4895200;29;20048;-91
2023/02/15 09:22:36;;;;;;;42.50;26.50;;;2.80;99.90;;;;;;4939610;23;20528;-90
2023/02/15 09:25:01;;;;;;;36.00;24.48;;;2.80;99.90;;;;;;4866689;29;20051;-90
2023/02/15 09:27:27;;;;;;;37.67;24.17;;;2.90;99.90;;;;;;4882913;29;20049;-91
2023/02/15 09:29:52;;;;;;;36.72;25.75;;;3.00;99.90;;;;;;4883162;29;20045;-91
2023/02/15 09:32:18;;;;;;;40.58;26.63;;;3.10;99.90;;;;;;4866515;29;20096;-91
2023/02/15 09:34:44;;;;;;;46.22;30.15;;;3.10;99.90;;;;;;4882861;29;20408;-91
2023/02/15 09:37:09;;;;;;;37.35;24.98;;;3.20;99.90;;;;;;4866859;29;20048;-91
2023/02/15 09:39:39;;;;;;;39.65;26.40;;;3.20;99.90;;;;;;4882291;29;20069;-91
2023/02/15 09:42:16;;;;;;;52.70;32.95;;;3.30;99.90;;;;;;4865723;29;20140;-90
2023/02/15 09:44:47;;;;;;;51.70;33.05;;;3.40;99.90;;;;;;4883113;29;20131;-91
2023/02/15 09:47:34;;;;;;;44.13;28.92;;;3.40;99.90;;;;;;4865343;29;20044;-90
2023/02/15 09:50:22;;;;;;;42.75;28.10;;;3.60;99.90;;;;;;4881771;29;20048;-90
2023/02/15 09:53:12;;;;;;;51.80;33.40;;;3.60;99.90;;;;;;4882444;29;20123;-91
2023/02/15 09:55:38;;;;;;;45.15;30.42;;;3.70;99.90;;;;;;4882282;29;20079;-90
2023/02/15 09:58:28;;;;;;;47.33;30.13;;;3.80;99.90;;;;;;4882596;29;20056;-91
2023/02/15 10:01:31;;;;;;;62.78;37.03;;;3.90;99.90;;;;;;4864695;29;20049;-89
2023/02/15 10:04:06;;;;;;;59.42;36.58;;;4.00;99.90;;;;;;4865155;29;20104;-88
2023/02/15 10:06:50;;;;;;;62.58;38.20;;;4.10;99.90;;;;;;4881554;29;20181;-88
2023/02/15 10:09:34;;;;;;;;;;;4.20;99.90;;;;;;4865122;29;20048;-89
2023/02/15 10:12:12;;;;;;;;;;;4.20;99.90;;;;;;4865546;29;20375;-89
2023/02/15 10:15:09;;;;;;;48.97;32.55;;;4.30;99.90;;;;;;4881389;29;19928;-87
2023/02/15 10:18:00;;;;;;;66.22;40.33;;;4.40;99.90;;;;;;4874915;29;20049;-88
2023/02/15 10:20:41;;;;;;;47.17;30.98;;;4.50;99.90;;;;;;4881334;29;20056;-88
2023/02/15 10:23:12;;;;;;;58.92;37.05;;;4.60;99.90;;;;;;4881153;29;20180;-88
2023/02/15 10:25:50;;;;;;;58.53;35.90;;;4.70;99.90;;;;;;4865320;29;20060;-91
2023/02/15 10:28:18;;;;;;;56.60;36.95;;;4.80;99.90;;;;;;4876357;29;20465;-89
2023/02/15 10:30:59;;;;;;;61.30;38.17;;;4.90;99.90;;;;;;4864656;29;20140;-88
2023/02/15 10:33:34;;;;;;;55.75;36.50;;;5.00;99.90;;;;;;4880024;29;20045;-90
2023/02/15 10:36:18;;;;;;;57.88;37.08;;;5.10;99.90;;;;;;4865346;29;20056;-90
2023/02/15 10:39:24;;;;;;;57.88;36.22;;;5.20;99.90;;;;;;4864583;29;20563;-89
2023/02/15 10:42:04;;;;;;;56.45;33.97;;;5.30;99.90;;;;;;4864523;29;20060;-87
2023/02/15 10:44:50;;;;;;;55.20;36.65;;;5.40;99.90;;;;;;4880971;29;20051;-88
2023/02/15 10:47:30;;;;;;;53.58;35.78;;;5.50;99.90;;;;;;4880245;29;20045;-87
2023/02/15 10:50:24;;;;;;;59.67;36.83;;;5.60;99.90;;;;;;4863692;29;20060;-86
2023/02/15 10:53:19;;;;;;;51.53;33.55;;;5.70;99.90;;;;;;4880426;29;20520;-88
2023/02/15 10:55:57;;;;;;;51.80;34.78;;;5.80;99.90;;;;;;4878850;29;20056;-88
2023/02/15 10:58:38;;;;;;;55.25;35.83;;;5.90;99.90;;;;;;4863527;29;20112;-88
2023/02/15 11:01:29;;;;;;;54.58;36.20;;;6.00;99.90;;;;;;4880608;29;20045;-88
2023/02/15 11:04:26;;;;;;;49.10;33.30;;;6.00;99.90;;;;;;4863398;29;20514;-87
2023/02/15 11:07:04;;;;;;;53.60;35.00;;;6.20;99.90;;;;;;4880184;29;20520;-88
2023/02/15 11:09:42;;;;;;;53.65;35.85;;;6.30;99.90;;;;;;4863087;29;20048;-87
2023/02/15 11:12:15;;;;;;;54.10;36.10;;;6.40;99.90;;;;;;4858017;29;20041;-87
2023/02/15 11:14:54;;;;;;;52.88;35.28;;;6.50;99.90;;;;;;4854835;29;20049;-87
2023/02/15 11:17:29;;;;;;;51.08;34.50;;;6.60;99.90;;;;;;4845416;29;20053;-90
2023/02/15 11:20:25;;;;;;;52.78;33.65;;;6.70;99.90;;;;;;4845395;29;20080;-89
2023/02/15 11:22:53;;;;;;;54.22;35.78;;;6.80;99.90;;;;;;4845401;29;20061;-88
2023/02/15 11:25:39;;;;;;;51.53;34.70;;;6.90;99.90;;;;;;4848202;29;20049;-89
2023/02/15 11:28:17;;;;;;;50.53;33.90;;;7.00;99.90;;;;;;4878375;29;20065;-90
2023/02/15 11:30:45;;;;;;;51.65;33.70;;;7.10;99.90;;;;;;4864343;29;20514;-90
2023/02/15 11:33:22;;;;;;;52.65;33.60;;;7.30;99.90;;;;;;4879794;29;20116;-89
2023/02/15 11:35:57;;;;;;;49.75;34.22;;;7.30;99.90;;;;;;4878657;29;20060;-88
2023/02/15 11:38:28;;;;;;;52.95;33.60;;;7.40;99.90;;;;;;4863785;29;20041;-89
2023/02/15 11:41:09;;;;;;;49.00;33.70;;;7.50;99.90;;;;;;4880262;29;20073;-89
2023/02/15 11:43:42;;;;;;;52.70;33.90;;;7.60;99.90;;;;;;4864725;29;20045;-92
2023/02/15 11:46:10;;;;;;;49.90;34.15;;;7.60;99.90;;;;;;4878650;29;20374;-91
2023/02/15 11:48:36;;;;;;;53.42;35.53;;;7.70;99.90;;;;;;4876037;29;20053;-90
2023/02/15 11:51:03;;;;;;;54.35;34.58;;;7.80;99.90;;;;;;4879673;29;20120;-90
2023/02/15 11:53:33;;;;;;;52.97;34.83;;;7.90;99.90;;;;;;4862227;29;20049;-89
2023/02/15 11:56:00;;;;;;;55.00;34.92;;;8.00;99.90;;;;;;4876675;29;20049;-90
2023/02/15 11:58:29;;;;;;;53.15;35.55;;;8.00;99.90;;;;;;4878988;29;20060;-89
2023/02/15 12:01:08;;;;;;;54.22;35.08;;;8.10;99.90;;;;;;4880318;29;20049;-90
2023/02/15 12:03:41;;;;;;;52.20;34.58;;;8.20;99.90;;;;;;4883713;29;20497;-90
2023/02/15 12:06:16;;;;;;;56.65;35.50;;;8.30;99.90;;;;;;4872445;29;20045;-90
2023/02/15 12:08:50;;;;;;;51.50;35.10;;;8.50;99.90;;;;;;4863453;29;20470;-89
2023/02/15 12:11:22;;;;;;;52.60;34.88;;;8.50;99.90;;;;;;4878803;29;20052;-89
2023/02/15 12:14:03;;;;;;;55.17;35.95;;;8.70;99.90;;;;;;4862150;29;20520;-89
2023/02/15 12:16:34;;;;;;;49.05;33.83;;;8.70;99.90;;;;;;4861120;29;20124;-90
2023/02/15 12:19:02;;;;;;;51.78;33.72;;;8.80;99.90;;;;;;4856818;29;20045;-90
2023/02/15 12:21:39;;;;;;;49.45;33.92;;;8.90;99.90;;;;;;4864920;29;20053;-91
2023/02/15 12:24:28;;;;;;;55.50;35.42;;;9.00;99.90;;;;;;4853754;29;20061;-91
2023/02/15 12:27:01;;;;;;;49.65;34.33;;;9.00;99.90;;;;;;4863031;29;20056;-88
2023/02/15 12:29:39;;;;;;;53.35;33.95;;;9.10;99.90;;;;;;4856230;29;20072;-90
2023/02/15 12:32:09;;;;;;;47.50;31.67;;;9.10;99.90;;;;;;4851653;29;20076;-90
2023/02/15 12:34:43;;;;;;;50.28;30.08;;;9.20;99.90;;;;;;4879411;29;20052;-89
2023/02/15 12:37:22;;;;;;;47.13;30.38;;;9.20;99.90;;;;;;4880004;29;20401;-90
2023/02/15 12:39:57;;;;;;;52.33;31.48;;;9.30;99.90;;;;;;4875612;29;20060;-90
2023/02/15 12:42:30;;;;;;;48.50;30.13;;;9.40;99.90;;;;;;4862146;29;20046;-90
2023/02/15 12:45:21;;;;;;;49.10;29.50;;;9.40;99.90;;;;;;4863706;29;20045;-90
2023/02/15 12:48:07;;;;;;;49.58;31.65;;;9.50;99.90;;;;;;4880834;29;20077;-89
2023/02/15 12:50:32;;;;;;;47.30;32.28;;;9.60;99.90;;;;;;4879138;29;20045;-90
2023/02/15 12:53:12;;;;;;;47.72;31.42;;;9.60;99.90;;;;;;4879984;29;20051;-88
2023/02/15 12:55:38;;;;;;;48.17;31.98;;;9.60;99.90;;;;;;4863196;29;20114;-88
2023/02/15 12:58:21;;;;;;;47.28;30.38;;;9.70;99.90;;;;;;4865882;29;20053;-90
2023/02/15 13:00:47;;;;;;;45.75;29.38;;;9.70;99.90;;;;;;4852983;29;20049;-90
2023/02/15 13:03:23;;;;;;;46.72;28.77;;;9.80;99.90;;;;;;4882181;29;20501;-88
2023/02/15 13:05:56;;;;;;;44.22;27.75;;;9.80;99.90;;;;;;4878663;29;20055;-88
2023/02/15 13:08:27;;;;;;;44.13;28.08;;;9.90;99.60;;;;;;4866714;29;20090;-88
2023/02/15 13:11:02;;;;;;;41.50;28.42;;;9.90;99.40;;;;;;4865816;29;20049;-89
2023/02/15 13:13:30;;;;;;;47.30;28.83;;;10.00;99.60;;;;;;4866647;29;20123;-90
2023/02/15 13:16:01;;;;;;;45.50;28.65;;;10.00;99.40;;;;;;4883882;29;20056;-89
2023/02/15 13:18:46;;;;;;;40.03;27.02;;;10.10;99.40;;;;;;4866717;29;20132;-89
2023/02/15 13:21:27;;;;;;;43.63;27.48;;;10.10;99.00;;;;;;4865749;29;20049;-88
2023/02/15 13:24:25;;;;;;;47.92;28.45;;;10.10;99.40;;;;;;4847358;29;20051;-89
2023/02/15 13:26:54;;;;;;;45.47;28.25;;;10.20;99.10;;;;;;4846811;29;20088;-88
2023/02/15 13:29:26;;;;;;;45.53;28.48;;;10.20;99.30;;;;;;4863710;29;20460;-87
2023/02/15 13:31:55;;;;;;;43.25;27.55;;;10.20;99.30;;;;;;4847125;29;20447;-88
2023/02/15 13:34:24;;;;;;;42.75;27.08;;;10.20;99.40;;;;;;4872853;24;20127;-88
2023/02/15 13:36:53;;;;;;;39.78;26.83;;;10.20;99.20;;;;;;4882899;23;20049;-87
2023/02/15 13:39:44;;;;;;;43.78;27.90;;;10.20;99.00;;;;;;4864603;29;20130;-87